createdAt,value
2017-05-21T00:00:25.115Z,87.50
2017-05-21T00:02:53.319Z,86.80
2017-05-21T00:05:21.535Z,86.60
2017-05-21T00:07:49.749Z,86.10
2017-05-21T00:10:17.956Z,86.10
2017-05-21T00:12:46.159Z,85.90
2017-05-21T00:15:14.383Z,86.00
2017-05-21T00:17:42.587Z,86.50
2017-05-21T00:20:10.831Z,86.80
2017-05-21T00:22:39.027Z,86.80
2017-05-21T00:25:07.239Z,86.70
2017-05-21T00:27:35.448Z,85.30
2017-05-21T00:30:03.668Z,85.60
2017-05-21T00:32:31.952Z,85.60
2017-05-21T00:35:00.162Z,86.00
2017-05-21T00:37:28.367Z,86.40
2017-05-21T00:39:56.907Z,86.60
2017-05-21T00:42:25.121Z,86.60
2017-05-21T00:44:53.336Z,86.10
2017-05-21T00:47:21.550Z,86.70
2017-05-21T00:49:49.759Z,86.80
2017-05-21T00:52:17.979Z,86.80
2017-05-21T00:54:46.178Z,86.80
2017-05-21T00:57:14.391Z,87.00
2017-05-21T00:59:42.594Z,86.70
2017-05-21T01:02:10.811Z,85.90
2017-05-21T01:04:39.019Z,86.50
2017-05-21T01:07:07.231Z,87.30
2017-05-21T01:09:35.448Z,88.30
2017-05-21T01:12:03.667Z,88.20
2017-05-21T01:14:31.916Z,88.10
2017-05-21T01:17:00.139Z,87.30
2017-05-21T01:19:28.355Z,86.80
2017-05-21T01:21:56.647Z,86.80
2017-05-21T01:24:24.860Z,86.50
2017-05-21T01:26:53.094Z,86.40
2017-05-21T01:29:21.300Z,85.60
2017-05-21T01:31:49.571Z,86.70
2017-05-21T01:34:17.776Z,86.70
2017-05-21T01:36:45.990Z,87.30
2017-05-21T01:39:14.201Z,87.10
2017-05-21T01:41:42.415Z,87.50
2017-05-21T01:44:10.619Z,88.30
2017-05-21T01:46:38.826Z,88.70
2017-05-21T01:49:07.039Z,89.20
2017-05-21T01:51:35.243Z,90.10
2017-05-21T01:54:03.463Z,90.50
2017-05-21T01:56:31.680Z,90.50
2017-05-21T01:58:59.896Z,90.50
2017-05-21T02:01:28.111Z,90.00
2017-05-21T02:03:56.419Z,89.20
2017-05-21T02:06:24.629Z,87.00
2017-05-21T02:08:52.843Z,86.60
2017-05-21T02:11:21.043Z,86.60
2017-05-21T02:13:49.315Z,87.50
2017-05-21T02:16:17.522Z,87.50
2017-05-21T02:18:45.737Z,88.00
2017-05-21T02:21:13.944Z,87.30
2017-05-21T02:23:42.169Z,87.50
2017-05-21T02:26:10.379Z,89.10
2017-05-21T02:28:38.602Z,90.20
2017-05-21T02:31:06.806Z,90.50
2017-05-21T02:33:35.024Z,91.00
2017-05-21T02:36:03.292Z,90.80
2017-05-21T02:38:31.510Z,90.20
2017-05-21T02:40:59.715Z,89.60
2017-05-21T02:43:27.939Z,89.20
2017-05-21T02:45:56.147Z,89.70
2017-05-21T02:48:24.364Z,88.60
2017-05-21T02:50:52.564Z,88.40
2017-05-21T02:53:20.827Z,89.00
2017-05-21T02:55:49.086Z,89.70
2017-05-21T02:58:17.364Z,90.10
2017-05-21T03:00:45.565Z,90.00
2017-05-21T03:03:13.775Z,90.00
2017-05-21T03:05:41.987Z,90.00
2017-05-21T03:08:10.188Z,89.60
2017-05-21T03:10:38.410Z,89.30
2017-05-21T03:13:06.615Z,89.40
2017-05-21T03:15:34.835Z,88.40
2017-05-21T03:18:03.044Z,87.80
2017-05-21T03:20:33.248Z,87.70
2017-05-21T03:23:01.453Z,87.50
2017-05-21T03:25:29.662Z,87.60
2017-05-21T03:27:57.887Z,88.40
2017-05-21T03:30:26.253Z,87.90
2017-05-21T03:32:55.068Z,88.10
2017-05-21T03:35:23.279Z,88.10
2017-05-21T03:37:51.487Z,88.90
2017-05-21T03:40:19.699Z,90.10
2017-05-21T03:42:47.903Z,90.60
2017-05-21T03:45:16.128Z,91.10
2017-05-21T03:47:44.331Z,91.20
2017-05-21T03:50:12.562Z,90.90
2017-05-21T03:52:40.767Z,90.80
2017-05-21T03:55:08.991Z,90.80
2017-05-21T03:57:37.227Z,90.80
2017-05-21T04:00:05.410Z,90.60
2017-05-21T04:02:33.611Z,90.20
2017-05-21T04:05:01.851Z,90.20
2017-05-21T04:07:30.055Z,89.40
2017-05-21T04:09:58.271Z,90.00
2017-05-21T04:12:26.487Z,90.30
2017-05-21T04:14:54.699Z,90.30
2017-05-21T04:17:23.023Z,89.60
2017-05-21T04:19:51.299Z,88.40
2017-05-21T04:22:19.510Z,88.50
2017-05-21T04:24:47.723Z,89.60
2017-05-21T04:27:16.025Z,90.20
2017-05-21T04:29:44.227Z,90.50
2017-05-21T04:32:12.438Z,90.80
2017-05-21T04:34:40.647Z,89.90
2017-05-21T04:37:08.867Z,86.40
2017-05-21T04:39:37.103Z,86.20
2017-05-21T04:42:05.327Z,85.90
2017-05-21T04:44:33.531Z,86.30
2017-05-21T04:47:01.747Z,86.40
2017-05-21T04:49:29.948Z,85.60
2017-05-21T04:51:58.160Z,84.40
2017-05-21T04:54:26.359Z,82.90
2017-05-21T04:56:54.623Z,82.40
2017-05-21T04:59:22.822Z,82.90
2017-05-21T05:01:51.047Z,82.40
2017-05-21T05:04:19.256Z,78.50
2017-05-21T05:06:47.531Z,78.00
2017-05-21T05:09:15.819Z,76.20
2017-05-21T05:11:44.075Z,75.90
2017-05-21T05:14:12.357Z,74.20
2017-05-21T05:16:40.579Z,73.00
2017-05-21T05:19:08.787Z,72.90
2017-05-21T05:21:36.996Z,70.30
2017-05-21T05:24:05.225Z,70.20
2017-05-21T05:26:33.449Z,68.10
2017-05-21T05:29:01.669Z,68.30
2017-05-21T05:31:29.970Z,67.90
2017-05-21T05:33:58.196Z,68.80
2017-05-21T05:36:27.248Z,66.60
2017-05-21T05:38:55.490Z,67.30
2017-05-21T05:41:23.695Z,64.60
2017-05-21T05:43:52.315Z,65.00
2017-05-21T05:46:20.532Z,63.30
2017-05-21T05:48:48.753Z,62.80
2017-05-21T05:51:16.959Z,61.50
2017-05-21T05:53:45.189Z,61.40
2017-05-21T05:56:13.402Z,59.20
2017-05-21T05:58:41.619Z,58.30
2017-05-21T06:01:09.836Z,57.40
2017-05-21T06:03:38.055Z,55.40
2017-05-21T06:06:06.262Z,55.80
2017-05-21T06:08:34.482Z,56.00
2017-05-21T06:11:02.699Z,54.60
2017-05-21T06:13:30.920Z,53.20
2017-05-21T06:15:59.131Z,52.30
2017-05-21T06:18:27.350Z,50.80
2017-05-21T06:20:55.571Z,48.20
2017-05-21T06:23:23.787Z,44.60
2017-05-21T06:25:52.007Z,44.20
2017-05-21T06:28:20.221Z,43.30
2017-05-21T06:30:48.440Z,49.50
2017-05-21T06:33:16.656Z,49.60
2017-05-21T06:35:44.878Z,48.30
2017-05-21T06:38:13.093Z,45.90
2017-05-21T06:40:41.311Z,42.20
2017-05-21T06:43:09.530Z,39.40
2017-05-21T06:45:37.752Z,39.10
2017-05-21T06:48:05.963Z,41.30
2017-05-21T06:50:34.187Z,40.00
2017-05-21T06:53:02.396Z,39.50
2017-05-21T06:55:30.622Z,39.50
2017-05-21T06:57:58.842Z,38.20
2017-05-21T07:00:27.060Z,39.50
2017-05-21T07:02:55.275Z,37.00
2017-05-21T07:05:23.491Z,37.70
2017-05-21T07:07:51.707Z,37.60
2017-05-21T07:10:19.927Z,38.80
2017-05-21T07:12:48.154Z,37.80
2017-05-21T07:15:16.379Z,36.70
2017-05-21T07:17:44.599Z,37.30
2017-05-21T07:20:12.849Z,38.30
2017-05-21T07:22:41.063Z,36.90
2017-05-21T07:25:09.289Z,38.20
2017-05-21T07:27:37.507Z,36.40
2017-05-21T07:30:05.721Z,36.70
2017-05-21T07:32:33.948Z,37.10
2017-05-21T07:35:02.163Z,36.20
2017-05-21T07:37:30.399Z,35.30
2017-05-21T07:39:58.603Z,34.70
2017-05-21T07:42:26.831Z,35.30
2017-05-21T07:44:55.052Z,34.80
2017-05-21T07:47:23.272Z,35.00
2017-05-21T07:49:51.491Z,34.50
2017-05-21T07:52:20.828Z,31.80
2017-05-21T07:54:49.052Z,32.40
2017-05-21T07:57:17.274Z,32.10
2017-05-21T07:59:45.489Z,32.40
2017-05-21T08:02:13.724Z,32.20
2017-05-21T08:04:41.950Z,31.60
2017-05-21T08:07:10.155Z,30.80
2017-05-21T08:09:38.378Z,30.10
2017-05-21T08:12:06.587Z,30.40
2017-05-21T08:14:34.811Z,31.10
2017-05-21T08:17:03.036Z,33.40
2017-05-21T08:19:31.252Z,34.20
2017-05-21T08:21:59.472Z,33.40
2017-05-21T08:24:27.692Z,35.10
2017-05-21T08:26:55.903Z,33.50
2017-05-21T08:29:24.128Z,33.50
2017-05-21T08:31:52.344Z,31.60
2017-05-21T08:34:20.566Z,31.90
2017-05-21T08:36:48.779Z,31.50
2017-05-21T08:39:17.002Z,30.50
2017-05-21T08:41:45.211Z,32.40
2017-05-21T08:44:13.437Z,33.00
2017-05-21T08:46:41.658Z,33.90
2017-05-21T08:49:09.931Z,33.30
2017-05-21T08:51:38.152Z,31.50
2017-05-21T08:54:06.372Z,31.30
2017-05-21T08:56:34.593Z,31.30
2017-05-21T08:59:02.904Z,31.20
2017-05-21T09:01:31.155Z,31.70
2017-05-21T09:03:59.372Z,30.20
2017-05-21T09:06:27.593Z,29.60
2017-05-21T09:08:55.802Z,28.70
2017-05-21T09:11:24.025Z,29.20
2017-05-21T09:13:52.238Z,28.00
2017-05-21T09:16:20.463Z,27.70
2017-05-21T09:18:48.678Z,27.90
2017-05-21T09:21:21.568Z,28.90
2017-05-21T09:23:49.779Z,30.00
2017-05-21T09:26:17.999Z,31.50
2017-05-21T09:28:46.210Z,32.10
2017-05-21T09:31:14.427Z,32.70
2017-05-21T09:33:42.645Z,29.30
2017-05-21T09:36:10.871Z,29.80
2017-05-21T09:38:39.086Z,29.30
2017-05-21T09:41:07.310Z,28.70
2017-05-21T09:43:35.519Z,28.00
2017-05-21T09:46:03.743Z,27.10
2017-05-21T09:48:31.957Z,27.00
2017-05-21T09:51:00.179Z,26.50
2017-05-21T09:53:28.411Z,27.70
2017-05-21T09:55:58.644Z,29.00
2017-05-21T09:58:26.869Z,28.60
2017-05-21T10:00:55.079Z,28.40
2017-05-21T10:03:23.304Z,28.20
2017-05-21T10:05:51.515Z,27.70
2017-05-21T10:08:19.748Z,27.30
2017-05-21T10:10:47.963Z,29.80
2017-05-21T10:13:16.190Z,27.60
2017-05-21T10:15:44.409Z,30.00
2017-05-21T10:18:12.631Z,28.20
2017-05-21T10:20:40.836Z,27.60
2017-05-21T10:23:09.091Z,30.20
2017-05-21T10:25:38.227Z,28.40
2017-05-21T10:28:06.446Z,28.00
2017-05-21T10:30:34.679Z,26.30
2017-05-21T10:33:02.884Z,27.50
2017-05-21T10:35:31.099Z,27.20
2017-05-21T10:37:59.332Z,25.90
2017-05-21T10:40:27.544Z,27.40
2017-05-21T10:42:55.763Z,25.40
2017-05-21T10:45:23.975Z,26.70
2017-05-21T10:47:52.191Z,25.60
2017-05-21T10:50:20.402Z,25.50
2017-05-21T10:52:48.663Z,24.70
2017-05-21T10:55:16.875Z,25.10
2017-05-21T10:57:45.087Z,26.40
2017-05-21T11:00:13.308Z,24.50
2017-05-21T11:02:41.527Z,25.10
2017-05-21T11:05:09.747Z,24.80
2017-05-21T11:07:37.972Z,24.80
2017-05-21T11:10:06.190Z,24.50
2017-05-21T11:12:34.455Z,23.00
2017-05-21T11:15:02.675Z,22.70
2017-05-21T11:17:30.906Z,22.50
2017-05-21T11:19:59.138Z,23.00
2017-05-21T11:22:39.749Z,23.00
2017-05-21T11:25:07.980Z,22.60
2017-05-21T11:27:36.194Z,23.80
2017-05-21T11:30:04.423Z,23.40
2017-05-21T11:32:32.679Z,22.20
2017-05-21T11:35:00.900Z,22.00
2017-05-21T11:37:30.135Z,22.70
2017-05-21T11:39:58.457Z,22.90
2017-05-21T11:42:26.724Z,21.40
2017-05-21T11:44:55.023Z,22.30
2017-05-21T11:47:23.231Z,24.30
2017-05-21T11:49:51.477Z,23.00
2017-05-21T11:52:19.783Z,25.90
2017-05-21T11:54:48.023Z,25.30
2017-05-21T11:57:16.262Z,25.30
2017-05-21T11:59:44.496Z,26.30
2017-05-21T12:02:12.749Z,25.30
2017-05-21T12:04:41.609Z,25.20
2017-05-21T12:07:09.852Z,25.80
2017-05-21T12:09:38.107Z,28.60
2017-05-21T12:12:06.358Z,29.00
2017-05-21T12:14:34.595Z,29.60
2017-05-21T12:17:02.837Z,30.40
2017-05-21T12:19:31.086Z,31.10
2017-05-21T12:21:59.328Z,29.20
2017-05-21T12:24:27.572Z,29.80
2017-05-21T12:26:55.059Z,29.80
2017-05-21T12:29:23.288Z,31.10
2017-05-21T12:31:51.525Z,30.40
2017-05-21T12:34:19.778Z,31.00
2017-05-21T12:36:48.020Z,31.70
2017-05-21T12:39:16.253Z,29.70
2017-05-21T12:41:44.496Z,31.90
2017-05-21T12:44:12.752Z,28.90
2017-05-21T12:46:40.999Z,29.20
2017-05-21T12:49:09.212Z,31.00
2017-05-21T12:51:37.459Z,30.00
2017-05-21T12:54:05.724Z,34.40
2017-05-21T12:56:34.013Z,30.90
2017-05-21T12:59:05.203Z,30.20
2017-05-21T13:01:33.551Z,30.20
2017-05-21T13:04:11.885Z,29.40
2017-05-21T13:06:40.269Z,30.00
2017-05-21T13:09:08.538Z,31.60
2017-05-21T13:11:36.023Z,30.70
2017-05-21T13:14:09.439Z,32.70
2017-05-21T13:16:37.720Z,33.10
2017-05-21T13:19:07.344Z,33.50
2017-05-21T13:21:44.438Z,32.80
2017-05-21T13:24:15.840Z,30.90
2017-05-21T13:26:45.734Z,33.80
2017-05-21T13:29:15.637Z,31.70
2017-05-21T13:31:47.921Z,34.00
2017-05-21T13:38:22.838Z,35.50
2017-05-21T13:40:51.090Z,34.30
2017-05-21T13:43:19.455Z,37.70
2017-05-21T13:45:47.757Z,35.60
2017-05-21T13:48:15.261Z,34.90
2017-05-21T13:50:43.502Z,32.80
2017-05-21T13:53:11.728Z,30.90
2017-05-21T13:55:39.947Z,29.30
2017-05-21T13:58:08.187Z,30.70
2017-05-21T14:00:39.209Z,31.80
2017-05-21T14:03:07.435Z,30.90
2017-05-21T14:14:22.960Z,31.10
2017-05-21T14:16:51.215Z,34.80
2017-05-21T14:19:19.476Z,34.30
2017-05-21T14:21:47.705Z,35.80
2017-05-21T14:24:15.979Z,34.40
2017-05-21T14:26:44.216Z,33.20
2017-05-21T14:29:12.483Z,32.40
2017-05-21T14:31:40.731Z,31.30
2017-05-21T14:34:09.003Z,33.40
2017-05-21T14:36:37.247Z,31.70
2017-05-21T14:39:05.508Z,30.60
2017-05-21T14:41:33.751Z,30.90
2017-05-21T14:44:02.033Z,30.70
2017-05-21T14:46:30.617Z,33.30
2017-05-21T14:48:58.875Z,33.90
2017-05-21T14:51:27.157Z,33.60
2017-05-21T14:53:55.431Z,33.00
2017-05-21T14:56:23.692Z,35.00
2017-05-21T14:58:51.931Z,34.00
2017-05-21T15:01:20.167Z,33.80
2017-05-21T15:03:48.400Z,34.20
2017-05-21T15:06:16.640Z,33.70
2017-05-21T15:08:44.859Z,33.90
2017-05-21T15:11:12.361Z,33.90
2017-05-21T15:13:40.597Z,32.20
2017-05-21T15:16:08.840Z,33.80
2017-05-21T15:18:36.328Z,33.80
2017-05-21T15:21:04.565Z,31.60
2017-05-21T15:23:32.816Z,30.40
2017-05-21T15:26:02.098Z,30.00
2017-05-21T15:28:30.516Z,32.30
2017-05-21T15:30:58.752Z,34.30
2017-05-21T15:33:26.984Z,34.40
2017-05-21T15:35:56.217Z,34.20
2017-05-21T15:38:24.449Z,33.40
2017-05-21T15:40:52.685Z,34.20
2017-05-21T15:43:20.908Z,36.20
2017-05-21T15:45:51.600Z,36.20
2017-05-21T15:48:19.836Z,34.50
2017-05-21T15:50:47.338Z,34.40
2017-05-21T15:53:17.068Z,35.90
2017-05-21T15:55:45.401Z,36.60
2017-05-21T15:58:12.966Z,36.60
2017-05-21T16:01:05.526Z,39.70
2017-05-21T16:03:33.792Z,38.60
2017-05-21T16:06:02.004Z,39.30
2017-05-21T16:08:30.223Z,39.70
2017-05-21T16:10:58.434Z,41.10
2017-05-21T16:13:26.661Z,41.40
2017-05-21T16:15:54.879Z,41.20
2017-05-21T16:18:23.104Z,42.70
2017-05-21T16:20:51.320Z,43.30
2017-05-21T16:23:19.548Z,42.40
2017-05-21T16:25:47.759Z,44.50
2017-05-21T16:28:15.995Z,44.90
2017-05-21T16:30:44.220Z,43.60
2017-05-21T16:33:12.653Z,42.50
2017-05-21T16:35:40.867Z,40.70
2017-05-21T16:38:09.087Z,41.20
2017-05-21T16:40:37.307Z,39.30
2017-05-21T16:43:05.535Z,40.30
2017-05-21T16:45:33.743Z,41.60
2017-05-21T16:48:01.972Z,38.70
2017-05-21T16:50:30.196Z,38.30
2017-05-21T16:52:58.495Z,39.80
2017-05-21T16:55:26.712Z,40.80
2017-05-21T16:57:54.932Z,38.80
2017-05-21T17:00:23.152Z,39.90
2017-05-21T17:02:51.400Z,41.00
2017-05-21T17:05:19.612Z,41.00
2017-05-21T17:07:47.067Z,41.00
2017-05-21T17:10:15.303Z,40.80
2017-05-21T17:12:43.515Z,40.40
2017-05-21T17:15:11.747Z,42.60
2017-05-21T17:17:39.959Z,43.00
2017-05-21T17:20:08.185Z,43.90
2017-05-21T17:22:35.628Z,43.80
2017-05-21T17:25:03.861Z,43.40
2017-05-21T17:27:32.084Z,43.10
2017-05-21T17:29:59.544Z,43.10
2017-05-21T17:32:27.764Z,43.60
2017-05-21T17:34:55.988Z,43.40
2017-05-21T17:37:24.196Z,43.70
2017-05-21T17:39:52.447Z,43.10
2017-05-21T17:42:20.734Z,43.90
2017-05-21T17:44:48.956Z,45.50
2017-05-21T17:47:17.184Z,47.80
2017-05-21T17:49:45.399Z,47.20
2017-05-21T17:52:13.619Z,47.60
2017-05-21T17:54:41.859Z,49.70
2017-05-21T17:57:09.412Z,49.60
2017-05-21T17:59:37.658Z,47.10
2017-05-21T18:02:05.903Z,47.00
2017-05-21T18:04:34.120Z,48.00
2017-05-21T18:07:02.339Z,47.80
2017-05-21T18:09:30.559Z,48.10
2017-05-21T18:11:58.801Z,49.30
2017-05-21T18:14:26.992Z,48.10
2017-05-21T18:16:55.603Z,49.70
2017-05-21T18:19:23.824Z,50.00
2017-05-21T18:21:52.052Z,50.60
2017-05-21T18:24:20.266Z,51.10
2017-05-21T18:26:48.499Z,50.90
2017-05-21T18:29:16.725Z,51.00
2017-05-21T18:31:44.955Z,52.90
2017-05-21T18:34:13.156Z,53.10
2017-05-21T18:36:41.383Z,54.60
2017-05-21T18:39:09.606Z,53.90
2017-05-21T18:41:37.829Z,52.40
2017-05-21T18:44:06.038Z,53.00
2017-05-21T18:46:34.263Z,54.90
2017-05-21T18:49:02.485Z,56.20
2017-05-21T18:51:30.714Z,56.00
2017-05-21T18:53:58.934Z,58.20
2017-05-21T18:56:27.135Z,57.20
2017-05-21T18:58:55.369Z,59.40
2017-05-21T19:01:23.584Z,60.40
2017-05-21T19:03:51.808Z,61.80
2017-05-21T19:06:20.031Z,64.20
2017-05-21T19:08:48.260Z,65.70
2017-05-21T19:11:16.497Z,66.50
2017-05-21T19:13:44.722Z,67.60
2017-05-21T19:16:12.939Z,68.50
2017-05-21T19:18:41.162Z,68.60
2017-05-21T19:21:09.371Z,69.70
2017-05-21T19:23:37.601Z,69.80
2017-05-21T19:26:05.828Z,70.00
2017-05-21T19:28:34.057Z,70.50
2017-05-21T19:31:02.280Z,70.90
2017-05-21T19:33:30.500Z,71.20
2017-05-21T19:35:58.726Z,71.50
2017-05-21T19:38:26.955Z,70.50
2017-05-21T19:40:55.164Z,69.70
2017-05-21T19:43:23.376Z,70.60
2017-05-21T19:45:51.608Z,70.50
2017-05-21T19:48:19.831Z,70.60
2017-05-21T19:50:48.051Z,71.80
2017-05-21T19:53:16.264Z,71.40
2017-05-21T19:55:44.486Z,71.00
2017-05-21T19:58:12.700Z,71.10
2017-05-21T20:00:40.930Z,71.00
2017-05-21T20:03:09.139Z,72.40
2017-05-21T20:05:37.368Z,72.90
2017-05-21T20:08:05.571Z,72.00
2017-05-21T20:10:33.787Z,72.30
2017-05-21T20:13:01.999Z,71.60
2017-05-21T20:15:30.227Z,71.60
2017-05-21T20:18:05.103Z,71.40
2017-05-21T20:20:33.332Z,72.30
2017-05-21T20:23:01.547Z,72.90
2017-05-21T20:25:29.771Z,73.50
2017-05-21T20:27:57.981Z,74.00
2017-05-21T20:30:26.227Z,72.70
2017-05-21T20:32:54.439Z,72.20
2017-05-21T20:35:22.660Z,72.40
2017-05-21T20:37:50.862Z,72.30
2017-05-21T20:40:30.019Z,73.30
2017-05-21T20:42:58.246Z,74.40
2017-05-21T20:45:26.501Z,74.70
2017-05-21T20:47:54.683Z,74.60
2017-05-21T20:50:22.887Z,74.60
2017-05-21T20:52:51.108Z,75.10
2017-05-21T20:55:19.319Z,75.00
2017-05-21T20:57:47.545Z,75.90
2017-05-21T21:00:15.775Z,76.40
2017-05-21T21:02:43.990Z,76.40
2017-05-21T21:05:12.194Z,76.60
2017-05-21T21:07:40.421Z,75.80
2017-05-21T21:10:08.636Z,75.40
2017-05-21T21:12:36.873Z,75.60
2017-05-21T21:15:05.082Z,75.60
2017-05-21T21:17:33.308Z,75.70
2017-05-21T21:20:01.534Z,76.40
2017-05-21T21:22:29.744Z,75.90
2017-05-21T21:24:57.975Z,75.60
2017-05-21T21:27:26.199Z,75.50
2017-05-21T21:29:54.415Z,76.10
2017-05-21T21:32:22.628Z,76.90
2017-05-21T21:34:50.862Z,77.30
2017-05-21T21:37:21.007Z,76.90
2017-05-21T21:39:49.244Z,77.10
2017-05-21T21:42:17.455Z,76.70
2017-05-21T21:44:45.675Z,76.70
2017-05-21T21:47:13.895Z,76.50
2017-05-21T21:49:42.113Z,76.50
2017-05-21T21:52:10.327Z,76.50
2017-05-21T21:54:39.642Z,77.30
2017-05-21T21:57:07.868Z,77.00
2017-05-21T21:59:36.084Z,77.80
2017-05-21T22:02:04.311Z,78.20
2017-05-21T22:04:32.522Z,79.20
2017-05-21T22:07:00.735Z,79.60
2017-05-21T22:09:28.939Z,79.50
2017-05-21T22:11:57.160Z,80.00
2017-05-21T22:14:25.372Z,80.10
2017-05-21T22:16:53.595Z,80.20
2017-05-21T22:19:21.815Z,80.20
2017-05-21T22:21:50.044Z,80.20
2017-05-21T22:24:18.259Z,80.20
2017-05-21T22:26:46.471Z,80.40
2017-05-21T22:29:14.675Z,80.10
2017-05-21T22:31:42.914Z,79.90
2017-05-21T22:34:11.120Z,79.50
2017-05-21T22:36:39.339Z,79.40
2017-05-21T22:39:07.555Z,79.50
2017-05-21T22:41:35.787Z,78.90
2017-05-21T22:44:04.007Z,78.20
2017-05-21T22:46:32.222Z,78.00
2017-05-21T22:49:00.442Z,78.20
2017-05-21T22:51:28.658Z,77.90
2017-05-21T22:53:56.884Z,79.70
2017-05-21T22:56:25.099Z,81.40
2017-05-21T22:58:53.320Z,81.70
2017-05-21T23:01:21.543Z,81.60
2017-05-21T23:03:49.768Z,81.60
2017-05-21T23:06:17.976Z,81.20
2017-05-21T23:08:46.195Z,82.00
2017-05-21T23:11:14.407Z,82.30
2017-05-21T23:13:42.628Z,82.40
2017-05-21T23:16:10.856Z,81.90
2017-05-21T23:18:39.082Z,81.70
2017-05-21T23:21:07.284Z,81.70
2017-05-21T23:23:35.504Z,81.00
2017-05-21T23:26:18.724Z,80.30
2017-05-21T23:28:46.936Z,79.60
2017-05-21T23:31:15.159Z,80.40
2017-05-21T23:33:43.379Z,80.20
2017-05-21T23:36:27.276Z,80.20
2017-05-21T23:39:10.185Z,79.10
2017-05-21T23:41:38.408Z,78.60
2017-05-21T23:44:06.628Z,78.30
2017-05-21T23:46:34.840Z,78.20
2017-05-21T23:49:03.046Z,78.70
2017-05-21T23:51:31.286Z,78.80
2017-05-21T23:53:59.487Z,79.10
2017-05-21T23:56:27.720Z,79.50
2017-05-21T23:58:55.923Z,79.80
